Time;durP1;ratioP1;P1;durP2;ratioP2;P2;SDS_P1;SDS_P2;PMS_P1;PMS_P2;Temp;Humidity;BMP_temperature;BMP_pressure;BME280_temperature;BME280_humidity;BME280_pressure;Samples;Min_cycle;Max_cycle;Signal;HPM_P1;HPM_P2
2023/04/29 00:01:04;;;;;;;7.33;3.10;;;12.00;99.90;12.00;100010.00;;;;4931895;28;117735;-72
2023/04/29 00:03:32;;;;;;;5.70;3.13;;;12.60;99.90;12.00;100021.00;;;;4932048;28;88674;-73
2023/04/29 00:05:59;;;;;;;3.47;2.70;;;12.10;99.90;12.00;100013.00;;;;4932505;28;87780;-71
2023/04/29 00:08:25;;;;;;;3.90;2.90;;;12.00;99.90;12.00;100013.00;;;;4933221;28;88768;-72
2023/04/29 00:10:51;;;;;;;3.40;3.10;;;12.00;99.90;12.00;100014.00;;;;4930071;28;107046;-72
2023/04/29 00:13:17;;;;;;;4.30;3.50;;;12.00;99.90;12.00;99992.00;;;;4930789;28;97467;-71
2023/04/29 00:15:42;;;;;;;3.97;3.10;;;12.00;99.90;12.00;100001.00;;;;4933255;28;107546;-70
2023/04/29 00:18:09;;;;;;;4.70;3.70;;;12.00;99.90;12.00;99987.00;;;;4931434;28;117888;-69
2023/04/29 00:20:36;;;;;;;4.40;3.60;;;12.00;99.90;12.00;99983.00;;;;4931430;28;87893;-70
2023/04/29 00:23:02;;;;;;;5.83;3.57;;;12.00;99.90;11.90;99984.00;;;;4932123;28;87750;-70
2023/04/29 00:25:29;;;;;;;5.80;3.50;;;12.00;99.90;11.90;99982.00;;;;4935465;28;96867;-72
2023/04/29 00:27:55;;;;;;;4.13;3.03;;;11.90;99.90;11.90;99989.00;;;;4920377;28;90593;-72
2023/04/29 00:30:21;;;;;;;4.93;3.90;;;11.90;99.90;11.80;99990.00;;;;4933467;28;87627;-73
2023/04/29 00:32:46;;;;;;;3.63;3.33;;;11.80;99.90;11.80;99991.00;;;;4926110;28;109519;-72
2023/04/29 00:35:12;;;;;;;3.47;3.17;;;11.80;99.90;11.80;99993.00;;;;4935514;28;101088;-71
2023/04/29 00:37:38;;;;;;;4.30;2.87;;;11.80;99.90;11.80;99999.00;;;;4935571;28;118534;-71
2023/04/29 00:40:05;;;;;;;4.90;3.33;;;11.80;99.90;11.70;99990.00;;;;4928165;28;115900;-71
2023/04/29 00:42:34;;;;;;;6.97;3.20;;;11.80;99.90;11.70;100001.00;;;;4934458;28;99708;-71
2023/04/29 00:45:00;;;;;;;3.60;3.30;;;11.80;99.90;11.70;99990.00;;;;4934426;28;87865;-70
2023/04/29 00:47:25;;;;;;;4.70;3.77;;;11.70;99.90;11.70;99989.00;;;;4933938;28;117286;-70
2023/04/29 00:49:51;;;;;;;4.00;3.53;;;11.70;99.90;11.70;99980.00;;;;4936262;28;88220;-70
2023/04/29 00:52:17;;;;;;;5.77;4.93;;;11.70;99.90;11.80;99981.00;;;;4932950;28;110444;-70
2023/04/29 00:54:43;;;;;;;4.20;3.43;;;11.70;99.90;11.80;99982.00;;;;4934180;28;108204;-70
2023/04/29 00:57:09;;;;;;;4.37;3.90;;;11.80;99.90;11.80;99974.00;;;;4930365;28;118124;-70
2023/04/29 00:59:36;;;;;;;4.30;3.90;;;11.80;99.90;11.80;99992.00;;;;4930682;28;88639;-71
2023/04/29 01:02:03;;;;;;;5.87;4.47;;;11.80;99.90;11.80;99990.00;;;;4934379;28;109563;-71
2023/04/29 01:04:32;;;;;;;5.63;4.17;;;11.80;99.90;11.80;99993.00;;;;4935307;28;87840;-70
2023/04/29 01:07:22;;;;;;;7.43;4.17;;;11.80;99.90;11.80;99979.00;;;;4933580;28;94993;-70
2023/04/29 01:10:31;;;;;;;5.13;3.57;;;11.80;99.90;11.80;99975.00;;;;4935461;28;108680;-71
2023/04/29 01:12:59;;;;;;;6.07;4.10;;;11.80;99.90;11.80;99983.00;;;;4934717;28;87799;-71
2023/04/29 01:15:48;;;;;;;6.50;4.60;;;11.80;99.90;11.80;99993.00;;;;4943958;28;87033;-72
2023/04/29 01:18:29;;;;;;;6.23;4.57;;;11.80;99.90;11.80;99983.00;;;;4916009;28;90002;-72
2023/04/29 01:20:56;;;;;;;7.07;4.00;;;11.90;99.90;11.90;99993.00;;;;4924476;28;90120;-72
2023/04/29 01:23:29;;;;;;;5.60;4.07;;;11.90;99.90;11.90;99990.00;;;;4933131;28;88570;-72
2023/04/29 01:25:56;;;;;;;6.03;4.10;;;11.90;99.90;11.90;99998.00;;;;4930909;28;87883;-69
2023/04/29 01:29:18;;;;;;;3.97;3.60;;;11.90;99.90;11.90;99997.00;;;;4933536;28;89808;-70
2023/04/29 01:31:57;;;;;;;4.63;4.20;;;11.90;99.90;11.90;99989.00;;;;4855278;28;87800;-71
2023/04/29 01:34:46;;;;;;;4.63;4.23;;;11.90;99.90;11.90;99991.00;;;;4906448;28;92129;-70
2023/04/29 01:37:50;;;;;;;3.37;3.07;;;11.90;99.90;11.90;99989.00;;;;4910016;28;88052;-71
2023/04/29 01:43:00;;;;;;;6.63;3.60;;;11.90;99.90;11.90;99976.00;;;;4937786;28;116845;-72
2023/04/29 01:45:27;;;;;;;7.23;4.63;;;11.90;99.90;11.90;99975.00;;;;4916062;28;87993;-72
2023/04/29 01:47:57;;;;;;;5.90;4.13;;;11.90;99.90;11.90;99980.00;;;;4935130;28;87717;-70
2023/04/29 01:50:23;;;;;;;4.37;3.87;;;11.90;99.90;11.90;99987.00;;;;4932632;28;89329;-70
2023/04/29 01:52:49;;;;;;;5.27;4.03;;;11.90;99.90;11.90;99987.00;;;;4934738;28;103703;-70
2023/04/29 01:55:15;;;;;;;7.50;4.20;;;11.90;99.90;11.90;99985.00;;;;4930373;28;87766;-71
2023/04/29 01:57:41;;;;;;;5.27;4.57;;;11.90;99.90;11.90;99986.00;;;;4934308;28;87805;-70
2023/04/29 02:00:07;;;;;;;7.47;4.13;;;11.90;99.90;11.90;100001.00;;;;4933730;28;88964;-74
2023/04/29 02:02:34;;;;;;;5.27;2.63;;;11.90;99.90;11.90;100006.00;;;;4932937;28;88003;-72
2023/04/29 02:04:59;;;;;;;7.20;4.27;;;11.90;99.90;11.90;100005.00;;;;4935077;28;111510;-70
2023/04/29 02:07:25;;;;;;;7.43;4.70;;;12.00;99.90;11.90;100004.00;;;;4913339;28;107809;-72
2023/04/29 02:09:50;;;;;;;8.20;4.57;;;12.00;99.90;11.80;100004.00;;;;4930060;28;107845;-71
2023/04/29 02:12:16;;;;;;;8.47;3.90;;;11.90;99.90;11.70;99998.00;;;;4934011;28;116000;-68
2023/04/29 02:14:42;;;;;;;5.27;4.17;;;11.80;99.90;11.50;100006.00;;;;4930263;28;109435;-68
2023/04/29 02:17:08;;;;;;;5.20;3.97;;;11.60;99.90;11.40;100009.00;;;;4934293;28;87822;-69
2023/04/29 02:19:33;;;;;;;6.20;3.70;;;11.50;99.90;11.30;100019.00;;;;4933007;28;117005;-71
2023/04/29 02:21:59;;;;;;;6.67;4.97;;;11.40;99.90;11.30;100025.00;;;;4930700;28;117419;-68
2023/04/29 02:24:25;;;;;;;5.00;4.43;;;11.30;99.90;11.20;100034.00;;;;4931540;28;88048;-68
2023/04/29 02:26:51;;;;;;;4.30;3.90;;;11.30;99.90;11.20;100030.00;;;;4937022;28;87752;-69
2023/04/29 02:29:17;;;;;;;6.10;4.73;;;11.20;99.90;11.20;100032.00;;;;4934277;28;88640;-67
2023/04/29 02:31:43;;;;;;;7.33;4.53;;;11.20;99.90;11.20;100023.00;;;;4935354;28;88414;-66
2023/04/29 02:34:09;;;;;;;5.03;4.53;;;11.20;99.90;11.20;100028.00;;;;4933340;28;111477;-67
2023/04/29 02:36:34;;;;;;;10.47;5.33;;;11.20;99.90;11.20;100032.00;;;;4934474;28;109951;-65
2023/04/29 02:39:00;;;;;;;6.03;5.00;;;11.20;99.90;11.10;100023.00;;;;4931364;28;118510;-67
2023/04/29 02:41:26;;;;;;;6.03;5.17;;;11.20;99.90;11.10;100020.00;;;;4935815;28;91363;-69
2023/04/29 02:43:51;;;;;;;6.33;5.63;;;11.20;99.90;11.10;100016.00;;;;4933439;28;87808;-66
2023/04/29 02:46:17;;;;;;;6.27;5.07;;;11.20;99.90;11.10;100013.00;;;;4934465;28;88146;-65
2023/04/29 02:48:44;;;;;;;7.67;5.37;;;11.20;99.90;11.10;100010.00;;;;4929922;28;89154;-65
2023/04/29 02:51:09;;;;;;;8.43;4.50;;;11.10;99.90;11.10;100004.00;;;;4927892;28;88684;-66
2023/04/29 02:53:35;;;;;;;6.47;4.77;;;11.20;99.90;11.10;100002.00;;;;4931883;28;109740;-68
2023/04/29 02:56:01;;;;;;;7.70;4.93;;;11.20;99.90;11.10;100013.00;;;;4924839;28;87188;-66
2023/04/29 02:58:26;;;;;;;6.33;5.13;;;11.10;99.90;11.20;99999.00;;;;4933320;28;95396;-66
2023/04/29 03:00:52;;;;;;;8.60;6.43;;;11.20;99.90;11.20;100007.00;;;;4933411;28;116747;-67
2023/04/29 03:03:18;;;;;;;7.77;4.67;;;11.20;99.90;11.20;100010.00;;;;4932582;28;88983;-67
2023/04/29 03:05:44;;;;;;;6.13;5.53;;;11.20;99.90;11.20;100000.00;;;;4933125;28;87821;-67
2023/04/29 03:08:10;;;;;;;8.00;5.47;;;11.30;99.90;11.20;99999.00;;;;4930390;28;88300;-66
2023/04/29 03:10:35;;;;;;;4.80;3.90;;;11.20;99.90;11.20;99999.00;;;;4933808;28;87930;-66
2023/04/29 03:13:01;;;;;;;8.13;5.13;;;11.30;99.90;11.20;100011.00;;;;4934463;28;88157;-67
2023/04/29 03:15:27;;;;;;;7.93;5.53;;;11.30;99.90;11.20;99996.00;;;;4931340;28;110251;-67
2023/04/29 03:17:53;;;;;;;5.70;4.63;;;11.30;99.90;11.30;100006.00;;;;4931389;28;116968;-68
2023/04/29 03:20:19;;;;;;;4.90;4.40;;;11.20;99.90;11.30;100004.00;;;;4933269;28;87934;-66
2023/04/29 03:22:45;;;;;;;7.97;6.37;;;11.30;99.90;11.30;99998.00;;;;4934265;28;87882;-68
2023/04/29 03:25:12;;;;;;;8.13;5.23;;;11.30;99.90;11.30;99990.00;;;;4930322;28;87815;-68
2023/04/29 03:27:37;;;;;;;7.53;5.23;;;11.30;99.90;11.30;99985.00;;;;4929782;28;89418;-66
2023/04/29 03:30:05;;;;;;;5.67;4.67;;;11.30;99.90;11.30;99986.00;;;;4929597;28;88694;-67
2023/04/29 03:32:30;;;;;;;6.83;5.40;;;11.40;99.90;11.30;99989.00;;;;4931244;28;88200;-66
2023/04/29 03:34:56;;;;;;;5.87;5.37;;;11.40;99.90;11.30;99985.00;;;;4934101;28;108269;-67
2023/04/29 03:37:22;;;;;;;8.73;5.50;;;11.30;99.90;11.30;99977.00;;;;4931008;28;88095;-67
2023/04/29 03:39:47;;;;;;;8.00;6.07;;;11.40;99.90;11.40;99987.00;;;;4931445;28;110131;-67
2023/04/29 03:42:13;;;;;;;7.57;5.33;;;11.40;99.90;11.30;99983.00;;;;4932569;28;110388;-66
2023/04/29 03:44:39;;;;;;;9.43;6.60;;;11.40;99.90;11.30;99986.00;;;;4928658;28;108440;-68
2023/04/29 03:47:05;;;;;;;8.73;5.90;;;11.30;99.90;11.30;99987.00;;;;4931436;28;87927;-67
2023/04/29 03:49:31;;;;;;;7.13;5.90;;;11.40;99.90;11.30;99977.00;;;;4931106;28;88740;-67
2023/04/29 03:51:56;;;;;;;10.17;7.43;;;11.30;99.90;11.30;99984.00;;;;4937628;28;110419;-68
2023/04/29 03:54:22;;;;;;;11.17;6.57;;;11.40;99.90;11.30;99978.00;;;;4935296;28;108166;-68
2023/04/29 03:56:48;;;;;;;6.97;5.70;;;11.40;99.90;11.30;99975.00;;;;4937601;28;117583;-67
2023/04/29 03:59:14;;;;;;;6.13;4.53;;;11.40;99.90;11.40;99981.00;;;;4937761;28;115703;-67
2023/04/29 04:01:39;;;;;;;5.87;4.47;;;11.40;99.90;11.40;99983.00;;;;4939601;28;87776;-67
2023/04/29 04:04:05;;;;;;;7.17;5.60;;;11.40;99.90;11.40;99979.00;;;;4934407;28;109822;-66
2023/04/29 04:06:31;;;;;;;5.60;4.70;;;11.40;99.90;11.40;99983.00;;;;4935587;28;89039;-66
2023/04/29 04:08:56;;;;;;;8.83;5.93;;;11.40;99.90;11.40;99987.00;;;;4934592;28;116486;-66
2023/04/29 04:11:22;;;;;;;7.00;4.27;;;11.40;99.90;11.40;99990.00;;;;4937629;28;110602;-67
2023/04/29 04:13:49;;;;;;;8.03;5.47;;;11.40;99.90;11.50;100001.00;;;;4937131;28;87814;-67
2023/04/29 04:16:15;;;;;;;7.00;5.60;;;11.50;99.90;11.50;99998.00;;;;4935750;28;89592;-66
2023/04/29 04:18:40;;;;;;;8.27;4.70;;;11.50;99.90;11.50;99995.00;;;;4933660;28;118801;-66
2023/04/29 04:21:09;;;;;;;8.67;6.03;;;11.50;99.90;11.50;99994.00;;;;4936276;28;110385;-67
2023/04/29 04:23:34;;;;;;;7.57;5.53;;;11.50;99.90;11.50;99988.00;;;;4935522;28;87895;-66
2023/04/29 04:26:00;;;;;;;10.37;6.57;;;11.50;99.90;11.50;99997.00;;;;4934065;28;88094;-66
2023/04/29 04:28:26;;;;;;;6.90;5.17;;;11.50;99.90;11.50;100000.00;;;;4939063;28;89029;-66
2023/04/29 04:30:51;;;;;;;6.47;4.67;;;11.50;99.90;11.50;100001.00;;;;4932218;28;110044;-66
2023/04/29 04:33:17;;;;;;;6.80;4.70;;;11.60;99.90;11.60;100007.00;;;;4936395;28;108870;-67
2023/04/29 04:35:43;;;;;;;7.70;5.50;;;11.60;99.90;11.60;100015.00;;;;4935918;28;107858;-67
2023/04/29 04:38:10;;;;;;;6.73;5.03;;;11.60;99.90;11.70;100010.00;;;;4936655;28;111481;-66
2023/04/29 04:40:36;;;;;;;7.57;4.50;;;11.70;99.90;11.70;100016.00;;;;4935957;28;88727;-68
2023/04/29 04:43:02;;;;;;;6.17;5.57;;;11.70;99.90;11.70;100007.00;;;;4933771;28;98349;-69
2023/04/29 04:45:29;;;;;;;6.13;5.27;;;11.70;99.90;11.80;100018.00;;;;4932871;28;89591;-69
2023/04/29 04:47:54;;;;;;;8.73;6.10;;;11.70;99.90;11.80;100008.00;;;;4928846;28;87826;-68
2023/04/29 04:50:20;;;;;;;7.10;4.80;;;11.70;99.90;11.70;100003.00;;;;4930976;28;108829;-68
2023/04/29 04:52:46;;;;;;;4.47;3.90;;;11.80;99.90;11.70;100010.00;;;;4932740;28;88120;-69
2023/04/29 04:55:12;;;;;;;5.83;4.60;;;11.70;99.90;11.70;99999.00;;;;4929479;28;117472;-69
2023/04/29 04:57:37;;;;;;;5.07;4.13;;;11.70;99.90;11.70;100010.00;;;;4931688;28;104775;-69
2023/04/29 05:00:04;;;;;;;7.47;4.50;;;11.70;99.90;11.70;100013.00;;;;4925817;28;109662;-67
2023/04/29 05:02:29;;;;;;;6.37;4.13;;;11.70;99.90;11.70;100014.00;;;;4928541;28;87864;-70
2023/04/29 05:04:55;;;;;;;6.77;5.03;;;11.70;99.90;11.60;100022.00;;;;4930082;28;89626;-69
2023/04/29 05:07:21;;;;;;;7.40;4.93;;;11.60;99.90;11.60;100024.00;;;;4931032;28;116796;-69
2023/04/29 05:09:47;;;;;;;7.67;4.80;;;11.60;99.90;11.60;100013.00;;;;4929643;28;112481;-69
2023/04/29 05:12:12;;;;;;;5.70;4.90;;;11.60;99.90;11.60;100014.00;;;;4931561;28;87896;-69
2023/04/29 05:14:38;;;;;;;10.60;6.57;;;11.60;99.90;11.60;100008.00;;;;4927337;28;118818;-68
2023/04/29 05:17:04;;;;;;;6.93;5.27;;;11.70;99.90;11.70;100008.00;;;;4934167;28;118146;-68
2023/04/29 05:19:30;;;;;;;8.97;6.83;;;11.70;99.90;11.70;100011.00;;;;4930537;28;110186;-68
2023/04/29 05:21:55;;;;;;;9.53;5.70;;;11.70;99.90;11.80;100011.00;;;;4928437;28;87146;-68
2023/04/29 05:24:21;;;;;;;8.43;6.00;;;11.70;99.90;11.90;100020.00;;;;4928445;28;89574;-69
2023/04/29 05:26:53;;;;;;;9.73;6.60;;;11.80;99.90;12.00;100017.00;;;;4929713;28;118331;-69
2023/04/29 05:29:18;;;;;;;11.17;7.57;;;11.90;99.90;12.10;100018.00;;;;4928783;28;106635;-69
2023/04/29 05:31:51;;;;;;;15.90;10.60;;;12.00;99.90;12.10;100023.00;;;;4931075;28;108438;-70
2023/04/29 05:34:16;;;;;;;18.20;10.90;;;12.10;99.90;12.20;100033.00;;;;4930761;28;88227;-70
2023/04/29 05:36:42;;;;;;;17.53;10.13;;;12.20;99.90;12.20;100037.00;;;;4932030;28;117379;-71
2023/04/29 05:39:07;;;;;;;12.80;8.00;;;12.20;99.90;12.20;100028.00;;;;4912025;28;102870;-71
2023/04/29 05:41:33;;;;;;;7.83;7.00;;;12.20;99.90;12.30;100033.00;;;;4930677;28;88154;-72
2023/04/29 05:43:59;;;;;;;9.97;6.90;;;12.20;99.90;12.30;100045.00;;;;4927966;28;117083;-73
2023/04/29 05:46:25;;;;;;;11.10;8.13;;;12.30;99.90;12.30;100040.00;;;;4932303;28;88063;-73
2023/04/29 05:48:51;;;;;;;11.93;7.27;;;12.40;99.90;12.40;100051.00;;;;4933120;28;88030;-71
2023/04/29 05:51:17;;;;;;;8.60;6.87;;;12.30;99.90;12.40;100045.00;;;;4935189;28;87775;-71
2023/04/29 05:53:43;;;;;;;19.63;8.23;;;12.40;99.90;12.40;100050.00;;;;4915345;28;89022;-71
2023/04/29 05:56:09;;;;;;;10.80;7.60;;;12.40;99.90;12.40;100042.00;;;;4928150;28;118329;-70
2023/04/29 05:58:35;;;;;;;8.20;5.73;;;12.40;99.90;12.40;100043.00;;;;4929812;28;88098;-69
2023/04/29 06:01:01;;;;;;;11.53;7.67;;;12.40;99.90;12.40;100041.00;;;;4929699;28;87711;-68
2023/04/29 06:03:28;;;;;;;10.10;6.03;;;12.40;99.90;12.40;100043.00;;;;4931289;28;88183;-68
2023/04/29 06:05:54;;;;;;;11.37;6.53;;;12.40;99.90;12.40;100048.00;;;;4929553;28;87951;-70
2023/04/29 06:08:20;;;;;;;11.67;6.13;;;12.40;99.90;12.30;100047.00;;;;4930670;28;102437;-67
2023/04/29 06:10:46;;;;;;;9.67;5.80;;;12.30;99.90;12.30;100056.00;;;;4931595;28;87079;-71
2023/04/29 06:13:11;;;;;;;11.97;5.70;;;12.30;99.90;12.30;100057.00;;;;4928690;28;89085;-71
2023/04/29 06:15:37;;;;;;;13.47;6.80;;;12.30;99.90;12.30;100056.00;;;;4932779;28;117136;-69
2023/04/29 06:18:03;;;;;;;9.90;5.93;;;12.30;99.90;12.30;100056.00;;;;4929560;28;109814;-69
2023/04/29 06:20:28;;;;;;;7.57;5.63;;;12.30;99.90;12.30;100060.00;;;;4929668;28;108243;-70
2023/04/29 06:22:54;;;;;;;10.03;5.60;;;12.30;99.90;12.40;100061.00;;;;4926003;28;118574;-71
2023/04/29 06:25:20;;;;;;;7.73;5.60;;;12.40;99.90;12.40;100058.00;;;;4931116;28;88692;-71
2023/04/29 06:27:46;;;;;;;9.10;6.07;;;12.40;99.90;12.40;100075.00;;;;4929109;28;88069;-73
2023/04/29 06:30:12;;;;;;;12.00;7.27;;;12.40;99.90;12.40;100063.00;;;;4915511;28;88075;-70
2023/04/29 06:32:38;;;;;;;6.80;5.47;;;12.40;99.90;12.40;100064.00;;;;4925927;28;116518;-72
2023/04/29 06:35:05;;;;;;;8.50;5.90;;;12.40;99.90;12.40;100068.00;;;;4912009;28;87372;-69
2023/04/29 06:37:30;;;;;;;10.47;6.63;;;12.40;99.90;12.50;100074.00;;;;4926685;28;88610;-68
2023/04/29 06:39:56;;;;;;;7.27;5.73;;;12.40;99.90;12.50;100075.00;;;;4924984;28;93947;-70
2023/04/29 06:42:22;;;;;;;10.20;6.77;;;12.50;99.90;12.60;100076.00;;;;4926422;28;116588;-70
2023/04/29 06:44:47;;;;;;;9.90;6.10;;;12.50;99.90;12.60;100076.00;;;;4929843;28;118464;-69
2023/04/29 06:47:14;;;;;;;9.40;6.13;;;12.60;99.90;12.60;100086.00;;;;4930023;28;88143;-69
2023/04/29 06:49:39;;;;;;;9.57;6.70;;;12.50;99.90;12.60;100064.00;;;;4931087;28;88086;-69
2023/04/29 06:52:05;;;;;;;7.23;5.53;;;12.60;99.90;12.60;100076.00;;;;4927483;28;117420;-68
2023/04/29 06:54:31;;;;;;;9.30;6.40;;;12.60;99.90;12.60;100069.00;;;;4928714;28;88958;-69
2023/04/29 06:56:57;;;;;;;6.87;5.97;;;12.60;99.90;12.70;100079.00;;;;4928009;28;101217;-70
2023/04/29 06:59:22;;;;;;;8.53;6.43;;;12.60;99.90;12.80;100079.00;;;;4928356;28;86912;-69
2023/04/29 07:01:48;;;;;;;12.00;7.77;;;12.70;99.90;13.00;100082.00;;;;4929306;28;118102;-70
2023/04/29 07:04:14;;;;;;;13.93;7.27;;;12.90;99.90;13.10;100067.00;;;;4928793;28;87912;-69
2023/04/29 07:06:40;;;;;;;13.43;9.60;;;13.00;99.90;13.40;100087.00;;;;4929624;28;89103;-69
2023/04/29 07:09:06;;;;;;;11.38;8.70;;;13.20;99.90;13.60;100084.00;;;;4927703;28;87924;-68
2023/04/29 07:11:31;;;;;;;10.87;8.10;;;13.40;99.90;13.70;100085.00;;;;4931147;28;88547;-69
2023/04/29 07:13:57;;;;;;;21.40;11.20;;;13.60;99.90;13.90;100080.00;;;;4934197;28;88470;-68
2023/04/29 07:16:25;;;;;;;19.75;11.85;;;13.80;99.90;14.00;100080.00;;;;4929915;28;88057;-68
2023/04/29 07:18:50;;;;;;;12.50;8.68;;;13.90;99.90;14.10;100077.00;;;;4929675;28;87743;-68
2023/04/29 07:21:22;;;;;;;13.60;8.03;;;14.00;99.90;14.10;100083.00;;;;4930775;28;117235;-68
2023/04/29 07:23:48;;;;;;;12.68;7.55;;;14.00;99.90;14.10;100088.00;;;;4931568;28;117416;-68
2023/04/29 07:26:16;;;;;;;11.10;6.13;;;14.10;99.90;14.20;100085.00;;;;4934360;28;87963;-70
2023/04/29 07:28:43;;;;;;;11.25;6.47;;;14.10;99.90;14.10;100089.00;;;;4935244;28;88198;-70
2023/04/29 07:31:09;;;;;;;8.13;5.88;;;14.10;99.90;14.20;100094.00;;;;4930271;28;111410;-68
2023/04/29 07:33:35;;;;;;;10.27;7.57;;;14.20;99.90;14.30;100097.00;;;;4927841;28;88524;-69
2023/04/29 07:36:03;;;;;;;10.65;6.72;;;14.20;99.90;14.30;100088.00;;;;4930524;28;109691;-69
2023/04/29 07:38:29;;;;;;;6.85;5.85;;;14.30;99.90;14.30;100092.00;;;;4930450;28;88066;-68
2023/04/29 07:40:55;;;;;;;7.40;5.68;;;14.30;99.90;14.40;100100.00;;;;4934045;28;88880;-68
2023/04/29 07:43:20;;;;;;;7.68;5.70;;;14.30;99.90;14.50;100105.00;;;;4934390;28;104988;-69
2023/04/29 07:45:47;;;;;;;12.32;6.85;;;14.40;99.90;14.50;100099.00;;;;4932135;28;99006;-68
2023/04/29 07:48:12;;;;;;;8.02;5.75;;;14.50;99.90;14.60;100102.00;;;;4932746;28;98193;-69
2023/04/29 07:50:38;;;;;;;10.43;6.70;;;14.50;99.90;14.60;100114.00;;;;4931970;28;107834;-67
2023/04/29 07:53:04;;;;;;;7.90;5.82;;;14.60;99.90;14.70;100119.00;;;;4928642;28;119135;-66
2023/04/29 07:55:31;;;;;;;9.93;6.82;;;14.60;99.90;14.70;100125.00;;;;4929853;28;88768;-66
2023/04/29 07:57:57;;;;;;;8.55;6.07;;;14.60;99.90;14.70;100131.00;;;;4933164;28;87756;-67
2023/04/29 08:00:23;;;;;;;10.45;5.63;;;14.60;99.90;14.70;100124.00;;;;4932218;28;107139;-66
2023/04/29 08:02:54;;;;;;;8.80;6.45;;;14.70;99.90;14.70;100125.00;;;;4928972;28;118493;-67
2023/04/29 08:05:20;;;;;;;7.93;6.40;;;14.60;99.90;14.60;100133.00;;;;4932649;28;87700;-66
2023/04/29 08:07:49;;;;;;;9.93;6.82;;;14.60;99.90;14.60;100137.00;;;;4933797;28;87919;-66
2023/04/29 08:10:17;;;;;;;6.65;5.28;;;14.60;99.90;14.60;100137.00;;;;4932959;28;88208;-64
2023/04/29 08:12:47;;;;;;;9.40;5.47;;;14.50;99.90;14.50;100139.00;;;;4930819;28;87769;-64
2023/04/29 08:15:13;;;;;;;11.25;5.63;;;14.50;99.90;14.50;100141.00;;;;4932300;28;95692;-65
2023/04/29 08:17:38;;;;;;;7.93;5.97;;;14.50;99.90;14.50;100149.00;;;;4930361;28;87992;-67
2023/04/29 08:20:07;;;;;;;6.90;5.60;;;14.50;99.90;14.40;100146.00;;;;4931096;28;99071;-66
2023/04/29 08:22:33;;;;;;;12.55;7.45;;;14.50;99.90;14.40;100150.00;;;;4931214;28;89234;-65
2023/04/29 08:24:58;;;;;;;7.72;6.25;;;14.50;99.90;14.50;100156.00;;;;4931076;28;110685;-66
2023/04/29 08:27:24;;;;;;;8.65;5.40;;;14.50;99.90;14.50;100159.00;;;;4933387;28;106670;-66
2023/04/29 08:29:50;;;;;;;9.45;5.32;;;14.50;99.90;14.50;100147.00;;;;4932044;28;118353;-66
2023/04/29 08:32:16;;;;;;;12.88;6.50;;;14.50;99.90;14.50;100158.00;;;;4930973;28;88654;-65
2023/04/29 08:34:43;;;;;;;9.82;5.55;;;14.50;99.90;14.60;100143.00;;;;4928792;28;100939;-67
2023/04/29 08:37:09;;;;;;;12.15;6.05;;;14.60;99.90;14.70;100162.00;;;;4933316;28;87222;-66
2023/04/29 08:39:35;;;;;;;6.93;5.07;;;14.60;99.90;14.80;100158.00;;;;4930314;28;89106;-66
2023/04/29 08:42:08;;;;;;;10.02;5.57;;;14.70;99.90;14.80;100168.00;;;;4931144;28;116066;-66
2023/04/29 08:44:35;;;;;;;8.30;5.45;;;14.80;99.90;14.90;100160.00;;;;4930037;28;88944;-66
2023/04/29 08:47:02;;;;;;;6.75;5.35;;;14.80;99.90;14.90;100165.00;;;;4934287;28;87814;-65
2023/04/29 08:49:29;;;;;;;12.63;6.32;;;14.90;99.90;14.90;100167.00;;;;4930084;28;88149;-65
2023/04/29 08:51:54;;;;;;;7.15;5.80;;;14.90;99.90;14.90;100167.00;;;;4927683;28;115389;-65
2023/04/29 08:54:20;;;;;;;7.70;5.60;;;14.90;99.90;14.90;100170.00;;;;4931428;28;88168;-66
2023/04/29 08:56:46;;;;;;;11.52;5.90;;;14.90;99.90;14.90;100170.00;;;;4931319;28;87816;-65
2023/04/29 08:59:18;;;;;;;7.38;5.70;;;14.80;99.90;14.90;100166.00;;;;4929085;28;87786;-65
2023/04/29 09:01:51;;;;;;;6.28;5.05;;;14.80;99.90;14.90;100179.00;;;;4932539;28;87069;-66
2023/04/29 09:04:40;;;;;;;7.18;6.45;;;14.90;99.90;14.90;100178.00;;;;4931278;28;87897;-66
2023/04/29 09:07:07;;;;;;;8.85;5.57;;;14.90;99.90;15.00;100187.00;;;;4930998;28;96250;-64
2023/04/29 09:09:33;;;;;;;9.35;5.53;;;14.90;99.90;15.00;100180.00;;;;4930126;28;89825;-65
2023/04/29 09:11:59;;;;;;;7.32;5.18;;;15.00;99.90;15.10;100181.00;;;;4930168;28;94111;-65
2023/04/29 09:14:25;;;;;;;6.07;4.82;;;15.00;99.90;15.20;100180.00;;;;4928340;28;88003;-65
2023/04/29 09:16:50;;;;;;;6.80;4.85;;;15.10;99.90;15.20;100180.00;;;;4931603;28;87733;-64
2023/04/29 09:19:31;;;;;;;6.43;4.80;;;15.20;99.90;15.20;100186.00;;;;4928823;28;117603;-65
2023/04/29 09:21:57;;;;;;;5.68;4.80;;;15.20;99.90;15.20;100188.00;;;;4928441;28;88504;-65
2023/04/29 09:24:27;;;;;;;10.43;6.07;;;15.20;99.90;15.30;100187.00;;;;4931032;28;100160;-65
2023/04/29 09:26:54;;;;;;;8.25;4.97;;;15.20;99.90;15.30;100195.00;;;;4931188;28;87270;-64
2023/04/29 09:29:19;;;;;;;4.93;4.25;;;15.20;99.90;15.30;100197.00;;;;4929333;28;89160;-65
2023/04/29 09:31:46;;;;;;;5.35;4.75;;;15.30;99.90;15.40;100194.00;;;;4931044;28;98439;-66
2023/04/29 09:34:13;;;;;;;7.90;5.47;;;15.30;99.90;15.50;100190.00;;;;4929096;28;93065;-64
2023/04/29 09:36:46;;;;;;;8.57;5.70;;;15.40;99.90;15.60;100193.00;;;;4932084;28;98527;-64
2023/04/29 09:39:19;;;;;;;8.98;6.10;;;15.50;99.90;15.60;100202.00;;;;4932897;28;87859;-64
2023/04/29 09:41:51;;;;;;;6.20;3.97;;;15.60;99.90;15.60;100204.00;;;;4930857;28;88585;-65
2023/04/29 09:44:18;;;;;;;6.20;4.90;;;15.60;99.90;15.50;100214.00;;;;4931547;28;110944;-64
2023/04/29 09:47:07;;;;;;;6.95;5.18;;;15.50;99.90;15.40;100216.00;;;;4927401;28;87842;-63
2023/04/29 09:49:41;;;;;;;4.85;4.15;;;15.40;99.90;15.40;100230.00;;;;4927995;28;88292;-66
2023/04/29 09:52:13;;;;;;;6.28;4.45;;;15.40;99.90;15.40;100225.00;;;;4929300;28;88193;-63
2023/04/29 09:54:41;;;;;;;8.40;4.28;;;15.30;99.90;15.30;100230.00;;;;4931996;28;87967;-64
2023/04/29 09:57:09;;;;;;;6.95;3.88;;;15.30;99.90;15.30;100226.00;;;;4930438;28;87906;-65
2023/04/29 09:59:38;;;;;;;5.78;3.30;;;15.30;99.90;15.30;100233.00;;;;4928767;28;89943;-64
2023/04/29 10:02:24;;;;;;;6.93;4.15;;;15.30;99.90;15.30;100240.00;;;;4929258;28;87912;-65
2023/04/29 10:04:56;;;;;;;6.18;3.50;;;15.30;99.90;15.40;100237.00;;;;4910871;28;88087;-63
2023/04/29 10:07:24;;;;;;;5.38;3.88;;;15.30;99.90;15.50;100248.00;;;;4927598;28;88291;-65
2023/04/29 10:09:50;;;;;;;4.88;3.70;;;15.40;99.90;15.50;100245.00;;;;4928375;28;117513;-65
2023/04/29 10:12:20;;;;;;;4.97;3.50;;;15.40;99.90;15.50;100247.00;;;;4930520;28;116328;-65
2023/04/29 10:15:01;;;;;;;5.65;3.45;;;15.50;99.90;15.50;100250.00;;;;4927823;28;88044;-64
2023/04/29 10:17:45;;;;;;;6.28;4.13;;;15.50;99.90;15.40;100243.00;;;;4928632;28;87090;-65
2023/04/29 10:20:17;;;;;;;7.13;4.47;;;15.40;99.90;15.30;100257.00;;;;4928582;28;88581;-65
2023/04/29 10:22:51;;;;;;;5.35;3.63;;;15.30;99.90;15.20;100251.00;;;;4926504;28;89278;-65
2023/04/29 10:25:20;;;;;;;5.20;3.53;;;15.20;99.90;15.20;100267.00;;;;4928825;28;101222;-64
2023/04/29 10:27:47;;;;;;;3.78;3.03;;;15.20;99.90;15.20;100262.00;;;;4928872;28;88023;-64
2023/04/29 10:30:15;;;;;;;3.17;2.65;;;15.10;99.90;15.20;100272.00;;;;4928490;28;88200;-64
2023/04/29 10:32:42;;;;;;;4.07;3.10;;;15.10;99.90;15.20;100274.00;;;;4928880;28;90098;-66
2023/04/29 10:35:10;;;;;;;5.00;2.88;;;15.10;99.90;15.20;100273.00;;;;4929633;28;88145;-65
2023/04/29 10:37:41;;;;;;;4.68;2.65;;;15.10;99.90;15.10;100283.00;;;;4930254;28;88213;-67
2023/04/29 10:40:22;;;;;;;5.03;2.45;;;15.10;99.90;15.00;100288.00;;;;4928327;28;89368;-65
2023/04/29 10:42:51;;;;;;;2.90;2.53;;;15.00;99.90;14.80;100295.00;;;;4930878;28;87395;-64
2023/04/29 10:45:27;;;;;;;2.63;2.33;;;14.80;99.90;14.80;100298.00;;;;4930895;28;89592;-64
2023/04/29 10:48:04;;;;;;;3.63;2.65;;;14.80;99.90;14.70;100302.00;;;;4931009;28;88064;-65
2023/04/29 10:50:32;;;;;;;4.18;2.70;;;14.60;99.90;14.60;100304.00;;;;4926914;28;88785;-66